This is the latest recevied weather packets stored in our database for station/object KE8GJZ-1. If no packets are shown the sender has not sent any weather packets the latest 10 day(s).
| Time | Temp. | Humidity | Pressure | Rain* | Wind** | Luminosity | Snow |
|---|---|---|---|---|---|---|---|
| 1777605016 | 7.78° C | 63% | 1012.8 hPa | 0 mm | - | 0 W/m² | - |
| 1777604711 | 7.78° C | 60% | 1012.9 hPa | 0 mm | - | 0 W/m² | - |
| 1777604409 | 7.78° C | 59% | 1013 hPa | 0 mm | - | 0 W/m² | - |
| 1777604108 | 7.22° C | 57% | 1013.2 hPa | 0 mm | - | 0 W/m² | - |
| 1777603805 | 7.78° C | 57% | 1013.1 hPa | 0 mm | - | 0 W/m² | - |
| 1777603501 | 7.78° C | 57% | 1012.9 hPa | 0 mm | - | 0 W/m² | - |
| 1777603197 | 7.78° C | 57% | 1013 hPa | 0 mm | - | 0 W/m² | - |
| 1777602894 | 7.78° C | 56% | 1012.9 hPa | 0 mm | - | 0 W/m² | - |
| 1777602589 | 7.78° C | 56% | 1013.1 hPa | 0 mm | - | 0 W/m² | - |
| 1777602284 | 7.78° C | 56% | 1013.2 hPa | 0 mm | - | 0 W/m² | - |
| 1777601980 | 7.78° C | 56% | 1012.8 hPa | 0 mm | - | 0 W/m² | - |
| 1777601676 | 7.78° C | 60% | 1012.9 hPa | 0 mm | - | 0 W/m² | - |
| 1777601371 | 7.78° C | 58% | 1012.8 hPa | 0 mm | - | 0 W/m² | - |
| 1777600156 | 7.78° C | 57% | 1012.6 hPa | 0 mm | - | 0 W/m² | - |
| 1777585588 | 11.11° C | 49% | 1012 hPa | 0 mm | - | 104 W/m² | - |
| 1777584676 | 11.11° C | 48% | 1012 hPa | 0 mm | - | 96 W/m² | - |
| 1777584373 | 11.11° C | 49% | 1012.2 hPa | 0 mm | - | 100 W/m² | - |
| 1777584069 | 11.11° C | 45% | 1012.1 hPa | 0 mm | - | 99 W/m² | - |
| 1777583763 | 11.67° C | 48% | 1012.2 hPa | 0 mm | - | 113 W/m² | - |
| 1777583157 | 12.22° C | 43% | 1012.3 hPa | 0 mm | - | 120 W/m² | - |
| 1777582853 | 12.22° C | 45% | 1012.1 hPa | 0 mm | - | 137 W/m² | - |
| 1777582550 | 12.22° C | 44% | 1012.3 hPa | 0 mm | - | 157 W/m² | - |
| 1777581332 | 13.89° C | 38% | 1012 hPa | 0 mm | - | 647 W/m² | - |
| 1777581028 | 13.89° C | 42% | 1012.1 hPa | 0 mm | - | 656 W/m² | - |
| 1777580424 | 13.33° C | 42% | 1012.3 hPa | 0 mm | - | 847 W/m² | - |
* Rain latest hour (hover to see other rain measurements)
** Current wind speed in m/s (hover to see current wind gust speed)